Time;durP1;ratioP1;P1;durP2;ratioP2;P2;SDS_P1;SDS_P2;PMS_P1;PMS_P2;Temp;Humidity;BMP_temperature;BMP_pressure;BME280_temperature;BME280_humidity;BME280_pressure;Samples;Min_cycle;Max_cycle;Signal;HPM_P1;HPM_P2
2021/03/20 00:01:26;;;;;;;18.73;7.83;;;5.50;99.90;;;;;;4936890;29;20627;-76
2021/03/20 00:03:53;;;;;;;19.27;8.10;;;5.50;99.90;;;;;;4952559;29;20196;-76
2021/03/20 00:06:24;;;;;;;11.13;7.70;;;5.60;99.90;;;;;;4934156;29;20583;-75
2021/03/20 00:08:51;;;;;;;14.47;7.87;;;5.60;99.90;;;;;;4934130;29;20774;-75
2021/03/20 00:11:20;;;;;;;13.03;7.83;;;5.60;99.90;;;;;;4939351;29;20186;-75
2021/03/20 00:13:46;;;;;;;13.90;9.20;;;5.50;99.90;;;;;;4953195;29;20623;-75
2021/03/20 00:16:12;;;;;;;12.00;7.47;;;5.50;99.90;;;;;;4936600;29;20182;-75
2021/03/20 00:18:39;;;;;;;15.67;8.60;;;5.50;99.90;;;;;;4953070;29;20208;-75
2021/03/20 00:21:07;;;;;;;12.67;9.07;;;5.50;99.90;;;;;;4952806;29;20170;-75
2021/03/20 00:23:32;;;;;;;12.70;9.23;;;5.50;99.90;;;;;;4954574;28;20181;-75
2021/03/20 00:25:58;;;;;;;11.47;9.20;;;5.50;99.90;;;;;;5052973;28;20513;-75
2021/03/20 00:28:27;;;;;;;12.97;10.07;;;5.50;99.90;;;;;;5053089;28;20636;-76
2021/03/20 00:31:00;;;;;;;11.93;9.27;;;5.50;99.90;;;;;;5052685;28;20263;-75
2021/03/20 00:33:28;;;;;;;9.73;8.27;;;5.50;99.90;;;;;;5053135;28;20241;-75
2021/03/20 00:35:55;;;;;;;13.90;8.43;;;5.40;99.90;;;;;;5039411;28;20170;-75
2021/03/20 00:38:21;;;;;;;14.67;9.30;;;5.40;99.90;;;;;;5056969;28;20175;-75
2021/03/20 00:40:47;;;;;;;17.07;9.80;;;5.30;99.90;;;;;;5056801;28;20176;-75
2021/03/20 00:43:13;;;;;;;12.67;9.33;;;5.40;99.90;;;;;;5039409;28;20219;-75
2021/03/20 00:45:40;;;;;;;13.23;9.17;;;5.40;99.90;;;;;;5057050;28;20195;-75
2021/03/20 00:48:11;;;;;;;20.77;10.60;;;5.40;99.90;;;;;;5057093;28;20191;-74
2021/03/20 00:50:38;;;;;;;19.07;10.63;;;5.50;99.90;;;;;;5039002;28;20205;-75
2021/03/20 00:53:03;;;;;;;17.33;9.43;;;5.60;99.90;;;;;;5038413;28;20187;-75
2021/03/20 00:55:29;;;;;;;23.13;10.70;;;5.80;99.90;;;;;;5057040;28;20229;-74
2021/03/20 00:57:55;;;;;;;15.63;11.20;;;5.80;99.90;;;;;;5038882;28;20570;-74
2021/03/20 01:00:24;;;;;;;17.57;12.80;;;6.00;99.90;;;;;;5056511;28;20620;-74
2021/03/20 01:02:49;;;;;;;22.23;11.23;;;6.10;99.90;;;;;;5056763;28;20203;-74
2021/03/20 01:05:16;;;;;;;23.83;11.83;;;6.10;99.90;;;;;;5038915;28;20168;-74
2021/03/20 01:07:43;;;;;;;20.27;11.90;;;6.00;99.90;;;;;;5038237;28;20199;-74
2021/03/20 01:10:13;;;;;;;22.87;12.40;;;6.00;99.90;;;;;;5039004;28;20526;-74
2021/03/20 01:12:39;;;;;;;23.30;13.43;;;6.10;99.90;;;;;;5056627;28;20199;-74
2021/03/20 01:15:07;;;;;;;22.47;12.40;;;6.20;99.90;;;;;;5039111;28;20535;-74
2021/03/20 01:17:32;;;;;;;16.43;12.53;;;6.20;99.90;;;;;;5022480;28;20325;-74
2021/03/20 01:19:58;;;;;;;24.83;12.73;;;6.10;99.90;;;;;;5056421;28;20663;-74
2021/03/20 01:22:23;;;;;;;24.63;13.07;;;6.20;99.90;;;;;;5037912;28;20207;-74
2021/03/20 01:24:49;;;;;;;27.73;12.37;;;6.20;99.90;;;;;;5056669;28;20167;-75
2021/03/20 01:27:15;;;;;;;23.33;12.57;;;6.20;99.90;;;;;;5038519;28;20163;-75
2021/03/20 01:29:40;;;;;;;19.43;11.73;;;6.00;99.90;;;;;;5038145;28;20167;-74
2021/03/20 01:32:07;;;;;;;23.07;12.13;;;6.00;99.90;;;;;;5055575;28;20192;-74
2021/03/20 01:34:33;;;;;;;21.83;12.47;;;6.00;99.90;;;;;;5038233;28;20326;-74
2021/03/20 01:36:58;;;;;;;20.37;11.03;;;5.90;99.90;;;;;;5056098;28;20251;-74
2021/03/20 01:39:24;;;;;;;18.67;11.90;;;6.00;99.90;;;;;;5021719;28;20540;-74
2021/03/20 01:41:49;;;;;;;15.57;12.00;;;6.00;99.90;;;;;;5055646;28;20265;-75
2021/03/20 01:44:23;;;;;;;25.00;12.33;;;6.00;99.90;;;;;;5056116;28;20175;-74
2021/03/20 01:46:52;;;;;;;17.73;12.80;;;6.00;99.90;;;;;;5037531;28;20171;-74
2021/03/20 01:49:21;;;;;;;19.63;11.87;;;6.10;99.90;;;;;;5055492;28;20266;-74
2021/03/20 01:51:57;;;;;;;20.10;12.33;;;6.10;99.90;;;;;;5055765;28;20199;-74
2021/03/20 01:54:29;;;;;;;21.37;10.83;;;6.00;99.90;;;;;;5055830;28;20607;-74
2021/03/20 01:56:55;;;;;;;19.53;10.60;;;6.00;99.90;;;;;;5055840;28;20202;-74
2021/03/20 01:59:22;;;;;;;21.60;11.30;;;6.00;99.90;;;;;;5055537;28;20624;-74
2021/03/20 02:01:47;;;;;;;22.30;10.23;;;6.00;99.90;;;;;;5054494;28;20214;-74
2021/03/20 02:04:15;;;;;;;12.17;10.87;;;6.00;99.90;;;;;;5037750;28;20180;-74
2021/03/20 02:06:41;;;;;;;19.33;10.07;;;6.00;99.90;;;;;;5055709;28;20168;-74
2021/03/20 02:09:10;;;;;;;14.60;10.90;;;6.00;99.90;;;;;;5055408;28;20176;-74
2021/03/20 02:12:01;;;;;;;19.07;9.43;;;6.00;99.90;;;;;;5055219;28;20633;-74
2021/03/20 02:15:03;;;;;;;19.83;10.07;;;6.00;99.90;;;;;;5037703;28;20175;-75
2021/03/20 02:17:50;;;;;;;18.83;10.47;;;6.00;99.90;;;;;;5037414;28;20190;-74
2021/03/20 02:20:29;;;;;;;22.10;10.83;;;5.90;99.90;;;;;;5055310;28;20187;-75
2021/03/20 02:23:07;;;;;;;22.83;10.00;;;5.80;99.90;;;;;;5055117;28;20290;-74
2021/03/20 02:25:41;;;;;;;18.67;10.27;;;5.70;99.90;;;;;;5055663;28;20245;-74
2021/03/20 02:28:26;;;;;;;24.37;10.50;;;5.60;99.90;;;;;;5055094;28;20172;-74
2021/03/20 02:31:23;;;;;;;16.53;10.67;;;5.60;99.90;;;;;;5054026;28;20175;-74
2021/03/20 02:33:51;;;;;;;15.73;10.30;;;5.70;99.90;;;;;;5055123;28;20197;-74
2021/03/20 02:36:46;;;;;;;21.70;11.27;;;5.60;99.90;;;;;;5055431;28;20171;-74
2021/03/20 02:39:40;;;;;;;23.73;11.23;;;5.50;99.90;;;;;;5023720;28;20179;-74
2021/03/20 02:42:23;;;;;;;20.00;11.97;;;5.30;99.90;;;;;;5054712;28;20214;-75
2021/03/20 02:45:28;;;;;;;15.73;10.10;;;5.10;99.90;;;;;;5054780;28;20171;-74
2021/03/20 02:48:24;;;;;;;20.60;10.50;;;5.00;99.90;;;;;;5055326;28;20171;-74
2021/03/20 02:51:03;;;;;;;21.93;10.53;;;4.80;99.90;;;;;;5028602;28;20686;-74
2021/03/20 02:53:50;;;;;;;18.00;11.43;;;4.80;99.90;;;;;;5049716;28;20176;-75
2021/03/20 02:56:28;;;;;;;16.77;11.17;;;4.70;99.90;;;;;;5054775;28;20186;-74
2021/03/20 02:59:15;;;;;;;18.90;11.53;;;4.70;99.90;;;;;;5053814;28;20217;-74
2021/03/20 03:01:46;;;;;;;21.07;11.53;;;4.70;99.90;;;;;;5054585;28;20249;-74
2021/03/20 03:04:14;;;;;;;13.30;11.13;;;4.80;99.90;;;;;;5054162;28;20175;-74
2021/03/20 03:06:53;;;;;;;17.83;11.30;;;4.90;99.90;;;;;;5054524;28;20171;-74
2021/03/20 03:09:25;;;;;;;12.73;10.33;;;4.80;99.90;;;;;;5054520;28;20168;-74
2021/03/20 03:11:53;;;;;;;15.63;10.87;;;4.80;99.90;;;;;;5054124;28;20653;-74
2021/03/20 03:14:25;;;;;;;19.83;11.93;;;4.80;99.90;;;;;;5054149;28;20620;-74
2021/03/20 03:16:57;;;;;;;14.47;11.73;;;4.70;99.90;;;;;;5036362;28;20175;-74
2021/03/20 03:19:45;;;;;;;21.17;11.53;;;4.60;99.90;;;;;;5036489;28;20199;-74
2021/03/20 03:22:17;;;;;;;13.80;11.17;;;4.60;99.90;;;;;;5005035;28;20229;-73
2021/03/20 03:24:45;;;;;;;18.03;12.53;;;4.40;99.90;;;;;;5054191;28;20225;-74
2021/03/20 03:27:14;;;;;;;18.50;11.70;;;4.30;99.90;;;;;;5035921;28;20182;-74
2021/03/20 03:29:42;;;;;;;16.67;11.37;;;4.30;99.90;;;;;;5036619;28;20174;-74
2021/03/20 03:32:35;;;;;;;27.00;13.00;;;4.20;99.90;;;;;;5053571;28;20190;-74
2021/03/20 03:35:13;;;;;;;19.30;12.33;;;4.30;99.90;;;;;;5053855;28;20201;-74
2021/03/20 03:37:49;;;;;;;25.07;12.33;;;4.30;99.90;;;;;;5053742;28;20209;-74
2021/03/20 03:40:20;;;;;;;22.20;12.73;;;4.30;99.90;;;;;;5036127;28;20171;-74
2021/03/20 03:42:52;;;;;;;18.20;14.03;;;4.20;99.90;;;;;;5053251;28;20207;-74
2021/03/20 03:45:19;;;;;;;22.37;13.70;;;4.20;99.90;;;;;;5019409;28;20179;-74
2021/03/20 03:47:47;;;;;;;16.40;13.17;;;4.20;99.90;;;;;;5035746;28;20172;-74
2021/03/20 03:50:17;;;;;;;15.47;13.57;;;4.20;99.90;;;;;;5053224;28;20587;-74
2021/03/20 03:52:43;;;;;;;21.37;13.57;;;4.20;99.90;;;;;;5035526;28;20175;-75
2021/03/20 03:55:09;;;;;;;19.77;13.67;;;4.30;99.90;;;;;;5053572;28;20167;-74
2021/03/20 03:58:01;;;;;;;21.70;14.27;;;4.20;99.90;;;;;;5035654;28;20167;-74
2021/03/20 04:00:34;;;;;;;23.87;14.63;;;4.20;99.90;;;;;;5053061;28;20179;-74
2021/03/20 04:03:12;;;;;;;25.87;14.60;;;4.30;99.90;;;;;;5053341;28;20660;-74
2021/03/20 04:05:48;;;;;;;21.57;13.27;;;4.20;99.90;;;;;;5053571;28;20246;-74
2021/03/20 04:08:40;;;;;;;24.03;15.10;;;4.20;99.90;;;;;;5053486;28;20164;-74
2021/03/20 04:11:17;;;;;;;24.87;14.90;;;4.10;99.90;;;;;;5053042;28;20171;-74
2021/03/20 04:14:22;;;;;;;23.53;15.27;;;4.10;99.90;;;;;;5053788;28;20174;-74
2021/03/20 04:17:00;;;;;;;21.73;14.13;;;4.10;99.90;;;;;;5003546;28;20266;-74
2021/03/20 04:19:50;;;;;;;19.00;14.47;;;4.10;99.90;;;;;;5035371;28;20509;-74
2021/03/20 04:22:37;;;;;;;22.90;14.73;;;4.10;99.90;;;;;;5053020;28;20199;-74
2021/03/20 04:25:28;;;;;;;23.47;15.17;;;4.20;99.90;;;;;;5053062;28;20161;-74
2021/03/20 04:28:33;;;;;;;23.93;15.73;;;4.20;99.90;;;;;;5053634;28;20468;-74
2021/03/20 04:31:13;;;;;;;26.53;17.40;;;4.20;99.90;;;;;;5048135;28;20264;-74
2021/03/20 04:33:48;;;;;;;30.23;16.40;;;4.20;99.90;;;;;;5052882;28;20187;-75
2021/03/20 04:36:25;;;;;;;21.23;15.13;;;4.20;99.90;;;;;;5035423;28;20166;-74
2021/03/20 04:38:53;;;;;;;27.47;16.43;;;4.20;99.90;;;;;;5035153;28;20182;-74
2021/03/20 04:41:19;;;;;;;20.83;16.80;;;4.20;99.90;;;;;;4971813;28;20190;-74
2021/03/20 04:43:45;;;;;;;27.20;17.33;;;4.10;99.90;;;;;;4972223;28;20675;-74
2021/03/20 04:46:20;;;;;;;22.63;15.90;;;4.10;99.90;;;;;;4956021;28;20218;-74
2021/03/20 04:49:10;;;;;;;27.77;15.23;;;4.00;99.90;;;;;;4955801;28;20629;-75
2021/03/20 04:51:41;;;;;;;24.43;16.17;;;3.90;99.90;;;;;;4971875;28;20281;-74
2021/03/20 04:54:11;;;;;;;25.27;16.47;;;3.80;99.90;;;;;;4956012;28;20170;-74
2021/03/20 04:56:45;;;;;;;20.47;17.03;;;3.70;99.90;;;;;;4955726;28;20182;-74
2021/03/20 04:59:22;;;;;;;23.53;17.27;;;3.70;99.90;;;;;;4971942;28;20177;-74
2021/03/20 05:01:52;;;;;;;19.47;15.07;;;3.70;99.90;;;;;;4963255;28;20217;-74
2021/03/20 05:04:39;;;;;;;32.53;17.90;;;3.70;99.90;;;;;;4971761;28;20182;-74
2021/03/20 05:07:05;;;;;;;26.10;17.77;;;3.70;99.90;;;;;;4955345;28;20230;-74
2021/03/20 05:09:31;;;;;;;25.77;17.43;;;3.70;99.90;;;;;;4971983;28;20178;-74
2021/03/20 05:12:26;;;;;;;24.87;17.83;;;3.70;99.90;;;;;;4984230;28;20525;-74
2021/03/20 05:15:02;;;;;;;29.33;17.30;;;3.60;99.90;;;;;;5052841;28;20163;-74
2021/03/20 05:17:28;;;;;;;25.63;17.83;;;3.50;99.90;;;;;;5052952;28;20167;-74
2021/03/20 05:19:54;;;;;;;29.17;18.00;;;3.50;99.90;;;;;;5052559;28;20182;-74
2021/03/20 05:22:26;;;;;;;24.20;18.07;;;3.40;99.90;;;;;;5055143;28;20571;-74
2021/03/20 05:24:52;;;;;;;27.80;18.83;;;3.40;99.90;;;;;;5038413;28;20167;-74
2021/03/20 05:27:25;;;;;;;23.97;18.30;;;3.40;99.90;;;;;;5056451;28;20217;-74
2021/03/20 05:29:51;;;;;;;25.60;17.63;;;3.40;99.90;;;;;;5056081;28;20254;-74
2021/03/20 05:32:24;;;;;;;26.77;18.60;;;3.40;99.90;;;;;;5055948;28;20663;-74
2021/03/20 05:34:53;;;;;;;24.80;18.00;;;3.40;99.90;;;;;;5038361;28;20582;-74
2021/03/20 05:37:24;;;;;;;36.43;18.37;;;3.50;99.90;;;;;;5056227;28;20566;-74
2021/03/20 05:39:49;;;;;;;31.23;19.03;;;3.60;99.90;;;;;;5038019;28;20171;-74
2021/03/20 05:42:45;;;;;;;37.13;19.63;;;3.50;99.90;;;;;;5037648;28;20207;-74
2021/03/20 05:45:32;;;;;;;27.03;18.93;;;3.50;99.90;;;;;;5038410;28;20171;-74
2021/03/20 05:48:13;;;;;;;25.13;19.60;;;3.40;99.90;;;;;;5037870;28;20576;-75
2021/03/20 05:51:00;;;;;;;35.13;17.90;;;3.40;99.90;;;;;;5055578;28;20203;-74
2021/03/20 05:54:03;;;;;;;24.50;18.30;;;3.40;99.90;;;;;;5056078;28;20254;-74
2021/03/20 05:56:56;;;;;;;32.30;19.97;;;3.40;99.90;;;;;;5037879;28;20194;-74
2021/03/20 05:59:40;;;;;;;29.47;20.60;;;3.40;99.90;;;;;;5055402;28;20170;-74
2021/03/20 06:02:19;;;;;;;24.53;18.77;;;3.40;99.90;;;;;;5055534;28;20210;-74
2021/03/20 06:04:47;;;;;;;33.33;19.73;;;3.30;99.90;;;;;;5038062;28;20183;-74
2021/03/20 06:07:19;;;;;;;27.37;19.67;;;3.10;99.90;;;;;;5055593;28;20167;-74
2021/03/20 06:10:13;;;;;;;29.00;19.07;;;3.10;99.90;;;;;;5037304;28;20172;-74
2021/03/20 06:13:07;;;;;;;31.90;20.27;;;3.20;99.90;;;;;;5027178;28;20187;-74
2021/03/20 06:15:54;;;;;;;34.90;19.73;;;3.30;99.90;;;;;;5055269;28;20163;-74
2021/03/20 06:19:02;;;;;;;30.53;19.53;;;3.30;99.90;;;;;;5037473;28;20171;-74
2021/03/20 06:21:53;;;;;;;27.23;18.87;;;3.20;99.90;;;;;;5037132;28;20227;-74
2021/03/20 06:24:45;;;;;;;27.23;19.23;;;3.30;99.90;;;;;;5037318;28;20254;-74
2021/03/20 06:27:18;;;;;;;34.63;20.27;;;3.40;99.90;;;;;;5055501;28;20623;-75
2021/03/20 06:30:02;;;;;;;25.73;19.03;;;3.60;99.90;;;;;;5036695;28;20180;-74
2021/03/20 06:32:35;;;;;;;24.97;17.70;;;3.30;99.90;;;;;;5054803;28;20195;-74
2021/03/20 06:35:07;;;;;;;22.37;18.43;;;3.40;99.90;;;;;;5037452;28;20266;-74
2021/03/20 06:37:39;;;;;;;31.83;19.37;;;3.50;99.90;;;;;;5037103;28;20627;-74
2021/03/20 06:40:20;;;;;;;27.63;18.67;;;3.70;99.90;;;;;;5055409;28;20159;-74
2021/03/20 06:42:47;;;;;;;31.13;18.20;;;3.80;99.90;;;;;;5035094;28;20200;-74
2021/03/20 06:45:26;;;;;;;33.33;19.30;;;4.10;99.90;;;;;;5017118;28;20639;-74
2021/03/20 06:47:57;;;;;;;32.07;18.80;;;4.20;99.90;;;;;;5035169;28;20238;-74
2021/03/20 06:50:36;;;;;;;30.03;17.93;;;4.40;99.90;;;;;;5035996;28;20176;-74
2021/03/20 06:53:07;;;;;;;29.40;18.30;;;4.60;99.90;;;;;;5054772;28;20647;-74
2021/03/20 06:55:48;;;;;;;23.77;16.73;;;4.40;99.90;;;;;;5054634;28;20167;-74
2021/03/20 06:58:26;;;;;;;22.20;16.73;;;4.20;99.90;;;;;;5054403;28;20181;-74
2021/03/20 07:00:54;;;;;;;29.33;17.03;;;4.40;99.90;;;;;;5053984;28;20180;-74
2021/03/20 07:03:25;;;;;;;22.63;16.90;;;4.50;99.90;;;;;;5054508;28;20265;-74
2021/03/20 07:06:03;;;;;;;21.53;15.17;;;4.70;99.90;;;;;;5054502;28;20583;-74
2021/03/20 07:08:55;;;;;;;21.67;16.40;;;5.00;99.90;;;;;;5054258;28;20171;-74
2021/03/20 07:11:33;;;;;;;24.80;16.07;;;5.40;99.90;;;;;;5054248;28;20175;-74
2021/03/20 07:14:02;;;;;;;22.30;15.53;;;6.00;99.90;;;;;;5036309;28;20258;-73
2021/03/20 07:16:29;;;;;;;22.67;16.53;;;6.10;99.90;;;;;;5053886;28;20674;-74
2021/03/20 07:19:00;;;;;;;18.73;14.43;;;6.50;99.90;;;;;;5054175;28;20210;-73
2021/03/20 07:21:29;;;;;;;16.87;13.77;;;6.90;99.90;;;;;;5054058;28;20171;-74
2021/03/20 07:24:21;;;;;;;21.70;14.53;;;8.00;99.90;;;;;;5054142;28;20179;-73
2021/03/20 07:27:13;;;;;;;15.80;12.57;;;8.50;99.90;;;;;;5054053;28;20208;-73
2021/03/20 07:29:47;;;;;;;14.17;12.57;;;9.80;99.90;;;;;;5035740;28;20171;-74
2021/03/20 07:32:19;;;;;;;16.67;12.45;;;10.40;99.90;;;;;;5053689;28;20179;-74
2021/03/20 07:34:46;;;;;;;13.55;12.15;;;11.50;99.90;;;;;;5036148;28;20171;-74
2021/03/20 07:37:24;;;;;;;14.90;11.82;;;12.90;99.90;;;;;;5053804;28;20176;-74
2021/03/20 07:39:53;;;;;;;12.32;10.82;;;12.70;99.90;;;;;;5053565;28;20181;-75
2021/03/20 07:42:23;;;;;;;13.85;11.77;;;13.60;99.90;;;;;;5053854;28;20281;-74
2021/03/20 07:44:56;;;;;;;12.85;10.02;;;15.20;99.90;;;;;;5053286;28;20160;-74
2021/03/20 07:47:24;;;;;;;15.18;10.77;;;15.70;99.90;;;;;;5035309;28;20163;-74
2021/03/20 07:50:17;;;;;;;13.48;10.48;;;16.70;99.90;;;;;;5053326;28;20167;-74
2021/03/20 07:52:44;;;;;;;11.32;10.23;;;15.30;99.90;;;;;;5053745;28;20171;-74
2021/03/20 07:55:19;;;;;;;14.52;10.13;;;16.20;99.90;;;;;;5053414;28;20167;-73
2021/03/20 07:58:02;;;;;;;16.50;10.20;;;16.70;99.90;;;;;;5053567;28;20163;-73
2021/03/20 08:00:34;;;;;;;11.27;8.85;;;19.00;99.90;;;;;;5053221;28;20682;-74
2021/03/20 08:03:18;;;;;;;14.90;9.65;;;19.90;99.90;;;;;;5035480;28;20203;-74
2021/03/20 08:05:43;;;;;;;12.10;9.23;;;21.20;99.90;;;;;;5053333;28;20179;-74
2021/03/20 08:08:22;;;;;;;10.05;9.00;;;21.90;97.40;;;;;;5053255;28;20183;-74
2021/03/20 08:10:56;;;;;;;9.52;8.23;;;22.00;96.80;;;;;;5035239;28;20175;-74
2021/03/20 08:13:33;;;;;;;9.85;8.93;;;22.70;95.20;;;;;;5053717;28;20250;-75
2021/03/20 08:16:00;;;;;;;9.95;9.07;;;22.10;93.30;;;;;;5035749;28;20167;-74
2021/03/20 08:18:34;;;;;;;11.55;9.30;;;21.20;94.30;;;;;;5035114;28;20167;-74
2021/03/20 08:21:16;;;;;;;10.15;9.15;;;22.70;93.40;;;;;;5033251;28;20214;-74
2021/03/20 08:24:00;;;;;;;11.93;10.07;;;22.00;92.00;;;;;;5015572;28;20591;-74
2021/03/20 08:27:03;;;;;;;10.88;9.88;;;21.50;92.60;;;;;;5029698;28;20187;-74
2021/03/20 08:30:03;;;;;;;9.95;8.98;;;22.30;92.00;;;;;;5030835;28;20209;-74
2021/03/20 08:33:03;;;;;;;10.30;9.35;;;24.50;90.60;;;;;;5017608;28;20631;-74
2021/03/20 08:35:59;;;;;;;10.30;9.23;;;24.90;88.10;;;;;;5039598;28;20171;-74
2021/03/20 08:38:39;;;;;;;9.70;9.00;;;24.90;81.20;;;;;;5035000;28;20620;-74
2021/03/20 08:41:18;;;;;;;9.95;8.73;;;22.80;84.90;;;;;;5053154;28;20217;-74
2021/03/20 08:44:15;;;;;;;10.40;8.52;;;21.60;87.70;;;;;;5035040;28;20817;-74
2021/03/20 08:47:19;;;;;;;11.52;9.95;;;23.10;88.30;;;;;;5033274;28;20168;-74
2021/03/20 08:50:10;;;;;;;9.32;8.40;;;26.30;82.60;;;;;;5041329;28;20714;-73
2021/03/20 08:52:42;;;;;;;9.15;8.45;;;24.30;79.60;;;;;;5015279;28;20187;-74
2021/03/20 08:55:34;;;;;;;9.63;8.73;;;24.90;82.70;;;;;;5049288;28;20179;-74
2021/03/20 08:58:38;;;;;;;9.00;8.20;;;27.30;77.90;;;;;;5056958;28;20623;-74
2021/03/20 09:01:26;;;;;;;11.70;8.50;;;27.60;74.30;;;;;;5033968;28;20183;-74
2021/03/20 09:03:57;;;;;;;9.43;8.82;;;26.70;74.10;;;;;;5056525;28;20668;-74
2021/03/20 09:06:42;;;;;;;9.63;8.30;;;27.10;72.00;;;;;;5056508;28;20586;-73
2021/03/20 09:09:17;;;;;;;14.75;8.40;;;26.50;74.30;;;;;;5039027;28;20171;-73
2021/03/20 09:11:51;;;;;;;7.80;7.22;;;27.20;72.00;;;;;;5057042;28;20170;-73
2021/03/20 09:14:23;;;;;;;8.93;8.13;;;25.20;71.70;;;;;;5056692;28;20178;-73
2021/03/20 09:16:59;;;;;;;10.93;8.88;;;24.90;74.50;;;;;;5056200;28;20176;-73
2021/03/20 09:19:53;;;;;;;8.77;8.10;;;26.50;72.00;;;;;;5056189;28;20197;-74
2021/03/20 09:22:24;;;;;;;9.85;8.82;;;25.60;72.50;;;;;;5055690;28;20219;-74
2021/03/20 09:25:27;;;;;;;12.10;8.73;;;24.90;73.60;;;;;;5056033;28;20174;-74
2021/03/20 09:28:08;;;;;;;8.48;7.93;;;24.10;74.10;;;;;;5051353;28;20187;-75
2021/03/20 09:30:35;;;;;;;9.73;8.75;;;21.50;75.90;;;;;;5056092;28;20179;-74
2021/03/20 09:33:05;;;;;;;8.55;7.95;;;20.50;78.20;;;;;;5038021;28;20206;-74
2021/03/20 09:35:55;;;;;;;12.35;10.35;;;19.00;81.70;;;;;;5055790;28;20642;-75
2021/03/20 09:38:35;;;;;;;10.88;9.77;;;19.80;81.20;;;;;;5056083;28;20247;-74
2021/03/20 09:41:28;;;;;;;9.65;8.85;;;19.70;82.90;;;;;;5056153;28;20167;-74
2021/03/20 09:44:03;;;;;;;10.52;9.43;;;19.80;83.10;;;;;;5050981;28;20202;-74
2021/03/20 09:46:47;;;;;;;8.90;8.20;;;19.60;82.20;;;;;;5037811;28;20174;-74
2021/03/20 09:49:16;;;;;;;8.65;8.05;;;21.20;83.30;;;;;;5055868;28;20646;-74
2021/03/20 09:51:50;;;;;;;8.95;8.15;;;23.40;76.70;;;;;;5055821;28;20174;-74
2021/03/20 09:57:12;;;;;;;8.57;7.88;;;23.80;74.60;;;;;;5043804;28;20258;-74
2021/03/20 09:59:37;;;;;;;7.47;6.82;;;27.30;73.10;;;;;;5037874;28;20167;-74
2021/03/20 10:02:11;;;;;;;7.57;6.85;;;29.60;67.70;;;;;;5055611;28;20685;-74
2021/03/20 10:04:48;;;;;;;7.25;6.72;;;29.60;64.50;;;;;;5055847;28;20168;-74
2021/03/20 10:07:20;;;;;;;5.07;4.78;;;30.50;61.20;;;;;;5054665;28;20745;-74
2021/03/20 10:10:27;;;;;;;8.88;5.82;;;28.30;59.80;;;;;;5055641;28;20699;-74
2021/03/20 10:13:35;;;;;;;6.93;6.43;;;24.80;65.10;;;;;;5055382;28;20237;-74
2021/03/20 10:16:04;;;;;;;6.97;6.20;;;23.80;70.20;;;;;;5038514;28;20536;-73
2021/03/20 10:18:33;;;;;;;9.30;5.63;;;25.50;68.70;;;;;;5055319;28;20507;-74
2021/03/20 10:21:11;;;;;;;7.20;6.22;;;26.40;67.00;;;;;;5055269;28;20174;-74
2021/03/20 10:24:12;;;;;;;6.05;5.57;;;23.20;68.80;;;;;;5054981;28;20255;-75
2021/03/20 10:26:42;;;;;;;6.68;6.18;;;21.50;72.00;;;;;;5040055;28;20183;-73
2021/03/20 10:29:26;;;;;;;7.20;4.85;;;22.50;72.10;;;;;;5055128;28;20167;-75
2021/03/20 10:31:54;;;;;;;5.85;5.03;;;23.30;69.50;;;;;;5053794;28;20217;-74
2021/03/20 10:34:24;;;;;;;5.05;4.60;;;21.20;67.40;;;;;;5054830;28;20179;-73
2021/03/20 10:37:06;;;;;;;7.47;5.57;;;21.80;69.90;;;;;;5054840;28;20250;-73
2021/03/20 10:39:41;;;;;;;6.10;5.60;;;22.70;70.70;;;;;;5055019;28;20173;-73
2021/03/20 10:42:19;;;;;;;7.85;5.68;;;23.00;67.70;;;;;;5032997;28;20211;-73
2021/03/20 10:44:46;;;;;;;7.53;5.57;;;22.30;70.00;;;;;;5036911;28;20540;-73
2021/03/20 10:47:12;;;;;;;5.90;5.38;;;22.30;68.10;;;;;;5053604;28;20168;-74
2021/03/20 10:50:05;;;;;;;5.70;5.30;;;23.90;67.90;;;;;;5054566;28;20240;-74
2021/03/20 10:52:38;;;;;;;7.10;4.78;;;24.00;66.80;;;;;;5050042;28;20214;-75
2021/03/20 10:55:17;;;;;;;4.80;4.47;;;24.30;67.80;;;;;;5056408;28;20170;-74
2021/03/20 10:57:44;;;;;;;4.85;4.45;;;25.90;62.30;;;;;;5060198;28;20217;-74
2021/03/20 11:00:40;;;;;;;5.05;4.55;;;26.10;63.30;;;;;;5054578;28;20167;-74
2021/03/20 11:03:22;;;;;;;4.22;3.92;;;24.90;63.80;;;;;;5036466;28;20294;-74
2021/03/20 11:05:49;;;;;;;4.25;3.95;;;25.30;62.90;;;;;;5054738;28;20190;-75
2021/03/20 11:08:28;;;;;;;4.00;3.70;;;27.10;62.30;;;;;;5037653;28;20171;-74
2021/03/20 11:11:06;;;;;;;4.32;3.97;;;26.60;59.60;;;;;;5073800;28;20220;-74
2021/03/20 11:13:38;;;;;;;3.97;3.78;;;25.90;63.50;;;;;;5056680;28;20174;-75
2021/03/20 11:16:11;;;;;;;4.90;3.75;;;24.10;62.70;;;;;;5074773;28;20159;-75
2021/03/20 11:18:44;;;;;;;4.20;3.90;;;25.10;63.50;;;;;;5035161;28;20608;-75
2021/03/20 11:21:44;;;;;;;3.80;3.50;;;27.00;59.40;;;;;;5036654;28;20578;-74
2021/03/20 11:24:16;;;;;;;4.55;3.90;;;27.20;60.10;;;;;;5000800;28;20619;-74
2021/03/20 11:26:47;;;;;;;4.82;3.60;;;26.80;59.60;;;;;;5036355;28;20163;-74
2021/03/20 11:29:27;;;;;;;4.20;3.55;;;26.60;59.50;;;;;;5054272;28;20595;-76
2021/03/20 11:32:03;;;;;;;3.17;2.88;;;28.00;58.10;;;;;;5054476;28;20167;-74
2021/03/20 11:34:39;;;;;;;4.18;3.80;;;29.50;56.60;;;;;;5054316;28;20179;-75
2021/03/20 11:37:19;;;;;;;3.55;3.00;;;28.30;55.40;;;;;;5054548;28;20220;-75
2021/03/20 11:39:44;;;;;;;3.40;3.20;;;26.00;58.60;;;;;;5036077;28;20171;-75
2021/03/20 11:42:14;;;;;;;3.55;3.25;;;24.20;59.60;;;;;;5053892;28;20206;-75
2021/03/20 11:44:46;;;;;;;3.53;2.90;;;24.90;59.70;;;;;;5053603;28;20616;-75
2021/03/20 11:47:38;;;;;;;3.42;3.13;;;22.60;59.10;;;;;;5054067;28;20206;-75
2021/03/20 11:50:14;;;;;;;5.55;3.75;;;22.90;62.40;;;;;;5049500;28;20182;-75
2021/03/20 11:52:52;;;;;;;3.88;3.58;;;24.10;62.40;;;;;;5035924;28;20219;-75
2021/03/20 11:55:42;;;;;;;3.45;3.17;;;26.00;59.50;;;;;;5035978;28;20159;-75
2021/03/20 11:58:30;;;;;;;3.90;3.53;;;27.10;55.80;;;;;;5023282;28;20207;-75
2021/03/20 12:01:00;;;;;;;3.72;3.42;;;27.70;58.60;;;;;;5038151;28;20241;-74
2021/03/20 12:03:46;;;;;;;3.90;3.60;;;28.60;57.20;;;;;;5033386;28;20226;-74
2021/03/20 12:06:18;;;;;;;6.05;3.88;;;27.90;58.30;;;;;;5035082;28;20197;-75
2021/03/20 12:08:48;;;;;;;3.88;3.58;;;28.90;57.30;;;;;;5054090;28;20247;-74
2021/03/20 12:11:20;;;;;;;3.67;3.38;;;28.60;57.60;;;;;;5053409;28;20216;-75
2021/03/20 12:13:56;;;;;;;4.03;3.38;;;28.20;56.40;;;;;;5053450;28;20168;-74
2021/03/20 12:16:38;;;;;;;4.97;3.50;;;28.00;56.50;;;;;;5053330;28;20171;-75
2021/03/20 12:19:20;;;;;;;3.78;3.17;;;27.90;57.80;;;;;;5048914;28;20163;-75
2021/03/20 12:22:02;;;;;;;3.40;3.10;;;27.70;56.70;;;;;;5054543;28;20191;-74
2021/03/20 12:24:38;;;;;;;3.53;3.33;;;28.60;57.10;;;;;;5034876;28;20194;-74
2021/03/20 12:27:29;;;;;;;3.20;3.00;;;28.80;55.90;;;;;;5035725;28;20167;-74
2021/03/20 12:30:19;;;;;;;3.58;3.28;;;26.50;57.50;;;;;;5052492;28;20201;-74
2021/03/20 12:32:50;;;;;;;5.00;2.90;;;24.80;57.50;;;;;;5017840;28;20231;-74
2021/03/20 12:35:22;;;;;;;3.63;3.33;;;23.90;61.00;;;;;;5034932;28;20253;-76
2021/03/20 12:38:05;;;;;;;3.42;3.13;;;23.70;61.60;;;;;;5034764;28;20174;-76
2021/03/20 12:40:32;;;;;;;3.10;2.80;;;24.60;61.70;;;;;;5035021;28;20163;-75
2021/03/20 12:43:06;;;;;;;3.22;3.03;;;24.20;59.10;;;;;;5052540;28;20286;-75
2021/03/20 12:45:34;;;;;;;3.95;3.35;;;24.10;59.10;;;;;;5035086;28;20226;-74
2021/03/20 12:48:00;;;;;;;3.38;3.05;;;24.90;58.70;;;;;;5053254;28;20171;-77
2021/03/20 12:50:26;;;;;;;3.22;2.33;;;23.90;59.20;;;;;;5052682;28;20211;-75
2021/03/20 12:52:52;;;;;;;2.88;2.67;;;22.20;59.20;;;;;;5018799;28;20570;-76
2021/03/20 12:55:18;;;;;;;3.20;2.90;;;21.40;64.70;;;;;;5053102;28;20183;-74
2021/03/20 12:57:43;;;;;;;2.97;2.78;;;21.80;62.50;;;;;;5035253;28;20678;-75
2021/03/20 13:00:21;;;;;;;2.90;2.55;;;21.90;61.10;;;;;;5052644;28;20213;-74
2021/03/20 13:02:47;;;;;;;4.97;2.78;;;20.20;61.60;;;;;;5052453;28;20237;-75
2021/03/20 13:05:27;;;;;;;4.43;2.50;;;17.80;66.70;;;;;;5034966;28;20225;-75
2021/03/20 13:07:54;;;;;;;3.10;2.70;;;16.30;68.30;;;;;;5053472;28;20227;-75
2021/03/20 13:10:20;;;;;;;3.72;3.42;;;15.20;75.00;;;;;;5053181;28;20242;-74
2021/03/20 13:12:46;;;;;;;5.68;2.83;;;15.10;76.80;;;;;;5052837;28;20175;-75
2021/03/20 13:15:13;;;;;;;3.53;2.60;;;15.20;76.00;;;;;;5015172;28;20180;-75
2021/03/20 13:17:38;;;;;;;3.13;2.92;;;14.70;75.60;;;;;;5033121;28;20192;-75
2021/03/20 13:20:07;;;;;;;3.63;3.33;;;13.60;76.70;;;;;;5015153;28;20222;-74
2021/03/20 13:22:34;;;;;;;4.40;2.80;;;12.90;80.00;;;;;;5015369;28;20283;-74
2021/03/20 13:24:59;;;;;;;2.55;2.35;;;12.80;82.80;;;;;;5036014;28;20574;-74
2021/03/20 13:27:26;;;;;;;7.13;3.33;;;12.60;79.00;;;;;;5035109;28;20187;-75
2021/03/20 13:29:52;;;;;;;3.40;3.08;;;12.70;80.00;;;;;;5015160;28;20182;-74